Time;durP1;ratioP1;P1;durP2;ratioP2;P2;SDS_P1;SDS_P2;PMS_P1;PMS_P2;Temp;Humidity;BMP_temperature;BMP_pressure;BME280_temperature;BME280_humidity;BME280_pressure;Samples;Min_cycle;Max_cycle;Signal;HPM_P1;HPM_P2
2022/10/29 00:02:32;;;;;;;8.18;5.75;;;16.60;81.80;;;;;;10948557;32;20023;-75
2022/10/29 00:08:36;;;;;;;8.80;6.10;;;16.50;81.90;;;;;;10948468;32;20015;-74
2022/10/29 00:14:38;;;;;;;13.60;8.55;;;16.40;81.90;;;;;;10948268;32;20038;-74
2022/10/29 00:20:41;;;;;;;13.88;5.78;;;16.30;82.10;;;;;;10574597;32;12193726;-75
2022/10/29 00:26:43;;;;;;;8.88;6.15;;;16.30;82.10;;;;;;10834011;27;20408;-75
2022/10/29 00:32:45;;;;;;;13.13;7.37;;;16.40;82.00;;;;;;10831931;32;20042;-75
2022/10/29 00:38:47;;;;;;;13.93;9.13;;;16.40;82.10;;;;;;10832320;32;20392;-76
2022/10/29 00:44:50;;;;;;;9.15;6.43;;;16.40;82.10;;;;;;10831247;32;20050;-75
2022/10/29 00:50:53;;;;;;;12.27;6.45;;;16.40;82.30;;;;;;10879643;32;20052;-75
2022/10/29 00:57:19;;;;;;;12.82;6.80;;;16.30;82.30;;;;;;10909103;32;20320;-74
2022/10/29 01:03:21;;;;;;;10.05;6.35;;;16.20;82.40;;;;;;10908529;32;20054;-75
2022/10/29 01:09:23;;;;;;;9.93;5.45;;;16.20;82.50;;;;;;10906797;32;20027;-75
2022/10/29 01:15:43;;;;;;;11.38;7.12;;;16.20;82.60;;;;;;10908396;32;20022;-75
2022/10/29 01:22:15;;;;;;;8.43;5.87;;;16.20;82.50;;;;;;10908032;32;20392;-75
2022/10/29 01:28:38;;;;;;;13.93;9.30;;;16.10;82.60;;;;;;10908253;32;20063;-75
2022/10/29 01:35:00;;;;;;;8.65;6.37;;;16.00;82.60;;;;;;10905292;32;20053;-74
2022/10/29 01:41:18;;;;;;;7.65;4.87;;;16.00;82.60;;;;;;10907615;32;20041;-74
2022/10/29 01:47:25;;;;;;;7.67;5.27;;;16.00;82.70;;;;;;10903058;32;20039;-74
2022/10/29 01:53:29;;;;;;;9.02;5.70;;;16.00;82.80;;;;;;10906967;32;20076;-74
2022/10/29 01:59:32;;;;;;;11.43;5.37;;;16.00;82.80;;;;;;10902650;32;20058;-74
2022/10/29 02:05:46;;;;;;;8.15;5.70;;;15.90;82.80;;;;;;10906757;32;20328;-74
2022/10/29 02:11:59;;;;;;;10.32;6.12;;;16.00;82.80;;;;;;10906441;32;20026;-74
2022/10/29 02:18:23;;;;;;;10.45;5.62;;;16.00;82.80;;;;;;10905591;32;20031;-74
2022/10/29 02:24:25;;;;;;;7.60;5.62;;;15.90;82.80;;;;;;10892664;32;20058;-74
2022/10/29 02:30:27;;;;;;;8.10;5.45;;;15.80;82.80;;;;;;10905854;32;20196;-73
2022/10/29 02:36:29;;;;;;;6.82;4.55;;;15.70;82.90;;;;;;10905470;32;20042;-74
2022/10/29 02:42:32;;;;;;;8.00;6.12;;;15.60;83.00;;;;;;10905089;32;20027;-73
2022/10/29 02:48:34;;;;;;;9.93;6.12;;;15.60;83.10;;;;;;10905011;32;20054;-74
2022/10/29 02:54:37;;;;;;;11.52;5.78;;;15.50;83.10;;;;;;10904907;32;20058;-74
2022/10/29 03:00:39;;;;;;;7.10;4.95;;;15.60;83.10;;;;;;10902671;32;20037;-73
2022/10/29 03:06:41;;;;;;;10.73;5.28;;;15.60;83.00;;;;;;10904597;32;20019;-74
2022/10/29 03:12:44;;;;;;;10.50;7.35;;;15.60;82.90;;;;;;10904407;32;20031;-74
2022/10/29 03:18:47;;;;;;;12.82;8.95;;;15.60;82.90;;;;;;10891063;32;20396;-74
2022/10/29 03:24:49;;;;;;;11.18;8.15;;;15.60;82.90;;;;;;10891048;32;20031;-74
2022/10/29 03:30:51;;;;;;;9.48;6.45;;;15.70;82.90;;;;;;10903789;32;20023;-73
2022/10/29 03:36:53;;;;;;;8.10;6.72;;;15.60;82.90;;;;;;10890737;32;20400;-75
2022/10/29 03:42:55;;;;;;;10.63;8.02;;;15.50;83.00;;;;;;10902006;32;20054;-75
2022/10/29 03:48:57;;;;;;;11.12;6.50;;;15.50;83.10;;;;;;10903900;32;20063;-75
2022/10/29 03:55:00;;;;;;;8.15;4.78;;;15.50;83.10;;;;;;10903800;32;20015;-74
2022/10/29 04:01:05;;;;;;;9.57;5.75;;;15.40;83.10;;;;;;10890170;32;20031;-75
2022/10/29 04:07:07;;;;;;;9.13;6.60;;;15.30;83.20;;;;;;10903474;32;20063;-75
2022/10/29 04:13:28;;;;;;;8.52;6.22;;;15.30;83.30;;;;;;10886014;32;20049;-75
2022/10/29 04:19:30;;;;;;;10.98;6.07;;;15.30;83.20;;;;;;10901919;32;20050;-74
2022/10/29 04:25:33;;;;;;;10.75;8.07;;;15.30;83.40;;;;;;10889750;32;20411;-76
2022/10/29 04:31:36;;;;;;;14.20;8.07;;;15.30;83.70;;;;;;10889791;32;20406;-76
2022/10/29 04:37:38;;;;;;;8.63;6.28;;;15.30;83.70;;;;;;10901589;32;20347;-76
2022/10/29 04:43:40;;;;;;;8.25;6.25;;;15.20;83.70;;;;;;10908432;32;20023;-76
2022/10/29 04:49:42;;;;;;;8.70;5.62;;;15.20;83.90;;;;;;10909456;32;20306;-76
2022/10/29 04:55:44;;;;;;;13.65;6.03;;;15.10;83.80;;;;;;10909263;32;20384;-76
2022/10/29 05:01:46;;;;;;;7.40;4.28;;;15.00;83.80;;;;;;10908952;32;20050;-76
2022/10/29 05:07:56;;;;;;;7.12;5.35;;;14.90;83.80;;;;;;10908790;32;20015;-76
2022/10/29 05:13:58;;;;;;;7.50;5.03;;;14.90;83.80;;;;;;10908510;32;20053;-76
2022/10/29 05:20:11;;;;;;;8.02;5.05;;;14.80;83.90;;;;;;10908544;32;20019;-76
2022/10/29 05:26:13;;;;;;;9.07;5.68;;;14.90;83.80;;;;;;10894921;32;20027;-76
2022/10/29 05:32:16;;;;;;;8.80;6.70;;;14.90;83.70;;;;;;10908007;32;20042;-76
2022/10/29 05:38:19;;;;;;;10.75;8.25;;;14.90;83.60;;;;;;10893895;32;20027;-76
2022/10/29 05:44:20;;;;;;;8.60;6.78;;;14.90;83.70;;;;;;10907526;32;20057;-76
2022/10/29 05:50:23;;;;;;;9.43;6.32;;;14.90;83.60;;;;;;10907198;32;20023;-76
2022/10/29 05:56:25;;;;;;;10.55;7.22;;;14.80;83.60;;;;;;10893822;32;20335;-76
2022/10/29 06:02:27;;;;;;;11.15;8.40;;;14.70;83.80;;;;;;10906488;32;20481;-76
2022/10/29 06:08:29;;;;;;;8.50;6.78;;;14.70;83.80;;;;;;10906620;32;20019;-76
2022/10/29 06:14:31;;;;;;;7.43;5.78;;;14.70;83.70;;;;;;10889009;32;20339;-74
2022/10/29 06:20:33;;;;;;;7.03;5.20;;;14.70;83.70;;;;;;10906091;32;20418;-74
2022/10/29 06:26:38;;;;;;;9.07;5.90;;;14.70;83.70;;;;;;10905731;32;20035;-74
2022/10/29 06:32:45;;;;;;;11.30;8.55;;;14.70;83.60;;;;;;10905809;32;20270;-74
2022/10/29 06:38:48;;;;;;;8.02;5.28;;;14.80;83.70;;;;;;10905565;32;20062;-74
2022/10/29 06:44:50;;;;;;;8.50;5.72;;;14.80;83.70;;;;;;10905129;32;20053;-74
2022/10/29 06:50:52;;;;;;;9.35;6.78;;;14.70;83.70;;;;;;10905183;32;20023;-74
2022/10/29 06:56:54;;;;;;;8.50;5.90;;;14.80;83.90;;;;;;10905141;32;20024;-74
2022/10/29 07:02:56;;;;;;;8.68;6.45;;;14.80;83.90;;;;;;10904224;32;20035;-74
2022/10/29 07:08:58;;;;;;;8.73;6.37;;;14.90;84.00;;;;;;10904727;32;20057;-74
2022/10/29 07:15:04;;;;;;;8.85;6.28;;;15.00;84.00;;;;;;10904424;32;20054;-74
2022/10/29 07:21:06;;;;;;;7.53;5.03;;;15.00;84.20;;;;;;10902632;32;20031;-74
2022/10/29 07:27:09;;;;;;;6.57;4.22;;;15.20;84.40;;;;;;10904165;32;20027;-74
2022/10/29 07:33:11;;;;;;;9.63;6.85;;;15.20;84.40;;;;;;10904078;32;20045;-73
2022/10/29 07:39:14;;;;;;;6.55;5.07;;;15.30;84.40;;;;;;10904054;32;20312;-73
2022/10/29 07:45:16;;;;;;;7.15;5.20;;;15.40;84.30;;;;;;10903805;32;20442;-74
2022/10/29 07:51:17;;;;;;;5.43;4.18;;;15.50;84.10;;;;;;10903813;32;20067;-73
2022/10/29 07:57:21;;;;;;;6.40;4.32;;;15.50;84.00;;;;;;10903824;32;20019;-73
2022/10/29 08:03:23;;;;;;;8.30;5.85;;;15.50;84.00;;;;;;10903814;32;20066;-73
2022/10/29 08:09:25;;;;;;;7.82;5.22;;;15.70;83.90;;;;;;10903683;32;20336;-76
2022/10/29 08:15:29;;;;;;;7.80;4.85;;;15.70;83.70;;;;;;10906712;32;20039;-77
2022/10/29 08:21:32;;;;;;;10.95;4.93;;;15.70;83.60;;;;;;10913610;27;20057;-76
2022/10/29 08:27:34;;;;;;;5.95;4.15;;;15.80;83.50;;;;;;10931326;32;20027;-76
2022/10/29 08:33:36;;;;;;;5.05;3.97;;;15.90;83.40;;;;;;10947614;32;20042;-77
2022/10/29 08:39:38;;;;;;;6.60;4.93;;;16.00;83.40;;;;;;10945535;32;20055;-76
2022/10/29 08:45:45;;;;;;;9.45;5.60;;;16.10;83.20;;;;;;10943041;32;20023;-77
2022/10/29 08:52:05;;;;;;;10.18;8.88;;;16.20;83.10;;;;;;10947635;32;20019;-77
2022/10/29 08:58:24;;;;;;;11.05;6.15;;;16.30;83.10;;;;;;10947318;32;20023;-77
2022/10/29 09:04:37;;;;;;;12.85;9.88;;;16.40;83.10;;;;;;10942849;32;20057;-77
2022/10/29 09:11:24;;;;;;;12.20;9.35;;;16.50;83.10;;;;;;10942609;32;20057;-77
2022/10/29 09:17:51;;;;;;;14.65;11.65;;;16.70;83.10;;;;;;10938872;32;20042;-78
2022/10/29 09:24:30;;;;;;;15.40;12.32;;;16.80;82.90;;;;;;10932847;32;20347;-77
2022/10/29 09:30:49;;;;;;;18.23;11.10;;;16.90;82.70;;;;;;10945552;32;20012;-77
2022/10/29 09:36:51;;;;;;;13.97;9.97;;;17.00;82.50;;;;;;10877753;32;20075;-77
2022/10/29 09:42:53;;;;;;;19.12;12.40;;;17.10;82.30;;;;;;10907422;32;20035;-77
2022/10/29 09:49:24;;;;;;;14.50;10.07;;;17.20;82.10;;;;;;10908085;32;20339;-77
2022/10/29 09:55:33;;;;;;;24.85;11.40;;;17.40;81.70;;;;;;10905268;32;20015;-77
2022/10/29 10:01:35;;;;;;;10.43;7.72;;;17.50;81.40;;;;;;10909759;32;20026;-76
2022/10/29 10:07:37;;;;;;;15.57;12.48;;;17.70;81.10;;;;;;10933945;32;20331;-77
2022/10/29 10:13:56;;;;;;;13.07;9.52;;;17.80;81.00;;;;;;10944642;32;20019;-77
2022/10/29 10:19:58;;;;;;;15.60;9.82;;;18.00;80.70;;;;;;10930802;32;20057;-78
2022/10/29 10:26:30;;;;;;;13.13;9.80;;;18.20;80.60;;;;;;10943799;32;20052;-78
2022/10/29 10:32:33;;;;;;;10.30;7.90;;;18.30;80.30;;;;;;10944159;32;20015;-77
2022/10/29 10:38:44;;;;;;;12.18;7.68;;;18.50;80.00;;;;;;10940129;32;20023;-78
2022/10/29 10:45:18;;;;;;;11.52;8.88;;;18.70;79.70;;;;;;10943906;32;20018;-77
2022/10/29 10:51:29;;;;;;;14.23;9.30;;;18.90;79.20;;;;;;10790927;32;20035;-75
2022/10/29 10:58:23;;;;;;;13.20;8.57;;;19.20;78.90;;;;;;10789942;32;20016;-76
2022/10/29 11:04:40;;;;;;;18.98;12.55;;;19.50;78.20;;;;;;10789824;32;20058;-74
2022/10/29 11:11:10;;;;;;;14.18;8.30;;;19.70;77.70;;;;;;10789548;32;20054;-73
2022/10/29 11:17:25;;;;;;;14.57;12.27;;;19.90;77.20;;;;;;10777123;32;20032;-73
2022/10/29 11:23:33;;;;;;;15.32;11.85;;;20.10;76.60;;;;;;10794954;32;20059;-73
2022/10/29 11:29:41;;;;;;;17.05;8.05;;;20.20;76.20;;;;;;10928720;32;20019;-74
2022/10/29 11:35:56;;;;;;;10.10;7.70;;;20.30;76.00;;;;;;10941963;32;20323;-74
2022/10/29 11:41:59;;;;;;;10.07;6.40;;;20.40;75.40;;;;;;10938720;32;20050;-75
2022/10/29 11:48:17;;;;;;;9.27;6.30;;;20.40;75.00;;;;;;10942076;32;20094;-75
2022/10/29 11:54:41;;;;;;;8.60;5.97;;;20.60;74.70;;;;;;10935613;32;20049;-72
2022/10/29 12:01:02;;;;;;;14.80;7.18;;;20.70;74.30;;;;;;10948953;32;20045;-74
2022/10/29 12:07:26;;;;;;;11.43;7.78;;;20.60;74.00;;;;;;10948843;32;20019;-73
2022/10/29 12:13:49;;;;;;;13.57;8.35;;;20.60;73.70;;;;;;10948390;32;20058;-73
2022/10/29 12:20:29;;;;;;;9.98;7.43;;;20.60;73.60;;;;;;10948240;32;20426;-72
2022/10/29 12:26:54;;;;;;;9.27;5.68;;;20.60;73.10;;;;;;10944273;32;20308;-71
2022/10/29 12:33:15;;;;;;;8.40;5.40;;;20.60;72.70;;;;;;10932914;32;20058;-75
2022/10/29 12:39:34;;;;;;;11.20;7.18;;;20.60;72.20;;;;;;10947870;32;20354;-72
2022/10/29 12:46:11;;;;;;;23.20;7.30;;;20.60;72.00;;;;;;10947355;32;20392;-73
2022/10/29 12:52:24;;;;;;;10.27;5.75;;;20.60;71.90;;;;;;10947559;32;20045;-78
2022/10/29 12:58:53;;;;;;;8.27;5.32;;;20.60;72.00;;;;;;10928731;32;20050;-78
2022/10/29 13:05:10;;;;;;;8.73;6.15;;;20.70;71.60;;;;;;10890956;32;20027;-78
2022/10/29 13:11:23;;;;;;;15.57;5.65;;;20.80;71.60;;;;;;10898333;32;20224;-77
2022/10/29 13:17:37;;;;;;;8.50;5.03;;;20.80;71.60;;;;;;10906339;32;20050;-78
2022/10/29 13:24:00;;;;;;;17.70;8.52;;;20.80;71.20;;;;;;10903573;32;20061;-77
2022/10/29 13:30:17;;;;;;;9.25;5.28;;;20.80;71.30;;;;;;10908572;32;20049;-77
2022/10/29 13:36:20;;;;;;;7.85;4.45;;;20.90;71.10;;;;;;10907243;32;20038;-77
2022/10/29 13:42:23;;;;;;;7.20;3.67;;;20.90;71.00;;;;;;10908491;32;20058;-78
2022/10/29 13:48:33;;;;;;;7.28;4.20;;;21.00;71.00;;;;;;10903743;32;20046;-77
2022/10/29 13:54:46;;;;;;;5.75;4.12;;;21.00;71.00;;;;;;10903576;32;20027;-77
2022/10/29 14:00:49;;;;;;;9.45;4.18;;;21.10;71.00;;;;;;10903292;32;20063;-75
2022/10/29 14:06:56;;;;;;;8.65;4.60;;;21.10;70.80;;;;;;10899715;32;20032;-75
2022/10/29 14:13:06;;;;;;;8.80;4.37;;;21.20;70.80;;;;;;10905490;32;20081;-73
2022/10/29 14:19:20;;;;;;;5.93;3.58;;;21.20;70.60;;;;;;10896953;32;20410;-75
2022/10/29 14:25:26;;;;;;;8.25;4.18;;;21.20;70.70;;;;;;10870621;32;20049;-74
2022/10/29 14:31:28;;;;;;;6.32;3.20;;;21.30;70.80;;;;;;10900067;32;20355;-75
2022/10/29 14:37:39;;;;;;;7.50;5.32;;;21.20;70.90;;;;;;10944300;32;20416;-74
2022/10/29 14:43:43;;;;;;;8.60;5.03;;;21.20;70.90;;;;;;10940387;32;20026;-75
2022/10/29 14:49:48;;;;;;;10.65;5.78;;;21.20;70.90;;;;;;10937582;32;20070;-75
2022/10/29 14:55:50;;;;;;;14.80;5.55;;;21.20;71.10;;;;;;10896179;32;20106;-75
2022/10/29 15:02:02;;;;;;;8.05;4.60;;;21.20;71.10;;;;;;10905454;32;20023;-76
2022/10/29 15:08:18;;;;;;;11.68;6.15;;;21.00;71.40;;;;;;10936426;32;20053;-75
2022/10/29 15:14:49;;;;;;;11.02;4.72;;;21.40;71.10;;;;;;10888483;32;20023;-75
2022/10/29 15:20:53;;;;;;;13.68;4.43;;;21.30;71.40;;;;;;10902777;32;20031;-75
2022/10/29 15:26:57;;;;;;;9.68;3.60;;;20.90;72.20;;;;;;10902303;32;20031;-75
2022/10/29 15:33:02;;;;;;;6.28;3.60;;;20.80;72.80;;;;;;10890706;32;20042;-75
2022/10/29 15:39:17;;;;;;;8.00;4.10;;;20.50;73.20;;;;;;10902757;32;20050;-75
2022/10/29 15:45:29;;;;;;;5.45;2.85;;;20.40;73.60;;;;;;10876653;32;20058;-75
2022/10/29 15:51:32;;;;;;;10.13;4.07;;;20.20;74.00;;;;;;10899046;32;20327;-75
2022/10/29 15:57:34;;;;;;;7.65;4.35;;;20.10;74.30;;;;;;10904108;32;20046;-75
2022/10/29 16:03:42;;;;;;;9.20;3.97;;;19.90;74.60;;;;;;10903924;32;20050;-75
2022/10/29 16:10:00;;;;;;;6.75;3.37;;;19.80;74.80;;;;;;10903724;32;20040;-75
2022/10/29 16:16:14;;;;;;;6.57;3.65;;;19.70;75.10;;;;;;10890610;32;20011;-75
2022/10/29 16:22:27;;;;;;;9.65;4.28;;;19.50;75.30;;;;;;10908132;27;20027;-75
2022/10/29 16:29:02;;;;;;;10.32;4.68;;;19.30;75.50;;;;;;10902667;32;20054;-75
2022/10/29 16:35:11;;;;;;;8.40;3.95;;;19.30;75.70;;;;;;10902485;32;20289;-75
2022/10/29 16:41:27;;;;;;;7.93;3.12;;;19.20;75.90;;;;;;10891948;32;20050;-75
2022/10/29 16:47:29;;;;;;;7.32;4.28;;;19.00;76.00;;;;;;10908440;32;20077;-75
2022/10/29 16:53:32;;;;;;;7.53;4.47;;;19.00;76.10;;;;;;10909519;32;20046;-75
2022/10/29 16:59:36;;;;;;;9.73;4.40;;;18.90;76.30;;;;;;10909296;32;20023;-75
2022/10/29 17:05:41;;;;;;;15.25;6.25;;;18.80;76.30;;;;;;10895409;32;20275;-75
2022/10/29 17:11:43;;;;;;;8.98;4.95;;;18.80;76.40;;;;;;10908624;32;20049;-78
2022/10/29 17:17:47;;;;;;;6.47;4.30;;;18.70;76.50;;;;;;10908022;32;20031;-78
2022/10/29 17:23:50;;;;;;;11.50;6.12;;;18.60;76.60;;;;;;10908256;32;20066;-78
2022/10/29 17:29:52;;;;;;;8.80;5.53;;;18.60;76.80;;;;;;10904755;32;20061;-77
2022/10/29 17:36:01;;;;;;;13.45;6.28;;;18.50;76.90;;;;;;10909646;32;20015;-78
2022/10/29 17:42:04;;;;;;;11.93;5.47;;;18.40;77.10;;;;;;10908295;32;20035;-77
2022/10/29 17:48:06;;;;;;;8.05;5.93;;;18.40;77.10;;;;;;10907816;32;20028;-78
2022/10/29 17:54:12;;;;;;;10.60;7.12;;;18.30;77.20;;;;;;10907873;32;20045;-78
2022/10/29 18:00:14;;;;;;;9.82;6.57;;;18.30;77.30;;;;;;10922550;32;20042;-78
2022/10/29 18:06:16;;;;;;;12.60;7.25;;;18.30;77.30;;;;;;10944896;32;20050;-75
2022/10/29 18:12:18;;;;;;;12.20;8.63;;;18.30;77.40;;;;;;10944612;32;20363;-75
2022/10/29 18:18:20;;;;;;;18.37;9.30;;;18.20;77.60;;;;;;10940271;32;20026;-75
2022/10/29 18:24:23;;;;;;;20.23;12.07;;;18.20;77.70;;;;;;10943939;32;20315;-75
2022/10/29 18:30:28;;;;;;;16.98;11.35;;;18.10;77.80;;;;;;10943855;32;20069;-75
2022/10/29 18:36:34;;;;;;;16.52;10.40;;;18.10;77.90;;;;;;10930317;32;20053;-75
2022/10/29 18:42:36;;;;;;;22.70;14.27;;;18.00;78.30;;;;;;10928620;32;20034;-75
2022/10/29 18:48:40;;;;;;;15.90;10.18;;;18.00;78.30;;;;;;10938802;32;20034;-75
2022/10/29 18:54:42;;;;;;;17.52;11.95;;;17.90;78.50;;;;;;10943082;32;20041;-75
2022/10/29 19:00:46;;;;;;;13.57;9.35;;;17.80;78.90;;;;;;10942323;32;20003;-75
2022/10/29 19:06:48;;;;;;;13.55;9.50;;;17.80;79.10;;;;;;10938375;32;20403;-75
2022/10/29 19:12:50;;;;;;;20.33;9.15;;;17.80;79.10;;;;;;10942338;32;20049;-75
2022/10/29 19:19:04;;;;;;;16.60;9.95;;;17.70;79.10;;;;;;10941637;32;20074;-75
2022/10/29 19:25:07;;;;;;;21.25;11.85;;;17.70;79.20;;;;;;10941959;32;20027;-75
2022/10/29 19:31:12;;;;;;;15.82;10.55;;;17.70;79.20;;;;;;10940487;32;20096;-75
2022/10/29 19:37:14;;;;;;;16.08;10.00;;;17.70;79.30;;;;;;10940918;32;20034;-75
2022/10/29 19:43:17;;;;;;;13.25;9.48;;;17.60;79.30;;;;;;10941740;32;20296;-76
2022/10/29 19:49:20;;;;;;;17.50;9.93;;;17.50;79.60;;;;;;10941663;32;20470;-75
2022/10/29 19:55:23;;;;;;;14.50;11.32;;;17.50;79.80;;;;;;10941637;32;20011;-75
2022/10/29 20:01:25;;;;;;;13.70;9.30;;;17.40;79.70;;;;;;10941508;32;20015;-75
2022/10/29 20:07:27;;;;;;;14.75;9.75;;;17.40;79.80;;;;;;10937097;32;20054;-79
2022/10/29 20:13:29;;;;;;;12.65;9.10;;;17.40;79.90;;;;;;10943513;32;20047;-79
2022/10/29 20:19:32;;;;;;;17.15;11.35;;;17.30;80.10;;;;;;10944448;32;20031;-79
2022/10/29 20:25:34;;;;;;;17.12;9.73;;;17.30;80.20;;;;;;10935088;32;20067;-79
2022/10/29 20:31:36;;;;;;;15.93;12.43;;;17.20;80.20;;;;;;10948492;32;20031;-78
2022/10/29 20:37:38;;;;;;;14.13;10.15;;;17.20;80.30;;;;;;10948172;32;20039;-78
2022/10/29 20:43:40;;;;;;;17.00;12.13;;;17.20;80.30;;;;;;10943610;32;20057;-79
2022/10/29 20:49:42;;;;;;;20.95;13.48;;;17.10;80.30;;;;;;10934289;32;20335;-78
2022/10/29 20:55:49;;;;;;;18.33;10.80;;;17.10;80.40;;;;;;10929877;32;20050;-78
2022/10/29 21:01:52;;;;;;;19.50;11.13;;;17.10;80.40;;;;;;10947351;32;20018;-78
2022/10/29 21:07:54;;;;;;;16.30;13.25;;;17.10;80.50;;;;;;10947270;32;20053;-78
2022/10/29 21:13:56;;;;;;;18.70;11.55;;;17.10;80.60;;;;;;10946846;32;20027;-78
2022/10/29 21:19:58;;;;;;;13.32;8.73;;;17.00;80.80;;;;;;10946852;32;20030;-78
2022/10/29 21:26:00;;;;;;;15.07;8.40;;;17.00;80.80;;;;;;10942835;32;20062;-78
2022/10/29 21:32:03;;;;;;;15.50;10.85;;;16.90;80.80;;;;;;10946222;32;20027;-79
2022/10/29 21:38:21;;;;;;;16.92;11.40;;;16.90;80.90;;;;;;10946202;32;20027;-78
2022/10/29 21:44:23;;;;;;;16.80;12.23;;;16.90;80.90;;;;;;10945870;32;20023;-79
2022/10/29 21:50:25;;;;;;;14.18;8.82;;;16.80;81.00;;;;;;10945594;32;20042;-78
2022/10/29 21:56:27;;;;;;;13.98;10.25;;;16.80;81.10;;;;;;10945356;32;20177;-78
2022/10/29 22:02:35;;;;;;;15.50;11.12;;;16.80;81.00;;;;;;10940848;32;20051;-78
2022/10/29 22:08:38;;;;;;;14.50;11.07;;;16.80;81.10;;;;;;10940627;32;20022;-78
2022/10/29 22:14:40;;;;;;;25.83;11.25;;;16.80;81.20;;;;;;10943603;32;20441;-78
2022/10/29 22:20:42;;;;;;;12.02;10.02;;;16.70;81.20;;;;;;10944422;32;20049;-78
2022/10/29 22:26:44;;;;;;;22.55;13.85;;;16.70;81.30;;;;;;10944094;32;20049;-78
2022/10/29 22:32:46;;;;;;;16.23;13.18;;;16.60;81.40;;;;;;10943923;32;20327;-77
2022/10/29 22:38:56;;;;;;;21.27;13.15;;;16.60;81.50;;;;;;10943797;32;20204;-78
2022/10/29 22:44:57;;;;;;;15.40;11.80;;;16.60;81.60;;;;;;10943474;32;20030;-78
2022/10/29 22:51:01;;;;;;;12.25;8.35;;;16.60;81.60;;;;;;10943238;32;20062;-78
2022/10/29 22:57:03;;;;;;;11.52;7.03;;;16.50;81.70;;;;;;10943185;32;20026;-78
2022/10/29 23:03:05;;;;;;;19.62;13.32;;;16.40;81.70;;;;;;10911247;32;20040;-78
2022/10/29 23:09:07;;;;;;;18.45;11.95;;;16.30;81.70;;;;;;10903933;32;20061;-78
2022/10/29 23:15:09;;;;;;;24.37;14.52;;;16.30;81.70;;;;;;10904051;32;20057;-77
2022/10/29 23:21:11;;;;;;;20.73;15.80;;;16.30;81.70;;;;;;10903121;32;20069;-78
2022/10/29 23:27:13;;;;;;;11.27;7.72;;;16.20;81.80;;;;;;10903561;32;20032;-78
2022/10/29 23:33:17;;;;;;;11.98;8.07;;;16.20;81.80;;;;;;10904441;32;20023;-78
2022/10/29 23:39:19;;;;;;;9.98;7.10;;;16.20;81.80;;;;;;10900022;32;20062;-78
2022/10/29 23:45:21;;;;;;;13.18;9.57;;;16.20;81.90;;;;;;10906077;32;20027;-78
2022/10/29 23:51:23;;;;;;;13.60;9.68;;;16.20;81.90;;;;;;10916476;32;20028;-78
2022/10/29 23:57:32;;;;;;;11.88;9.82;;;16.20;82.00;;;;;;10912240;32;20423;-78
